Time;durP1;ratioP1;P1;durP2;ratioP2;P2;SDS_P1;SDS_P2;PMS_P1;PMS_P2;Temp;Humidity;BMP_temperature;BMP_pressure;BME280_temperature;BME280_humidity;BME280_pressure;Samples;Min_cycle;Max_cycle;Signal;HPM_P1;HPM_P2
2023/03/10 00:02:00;;;;;;;48.60;29.80;;;;;;;2.76;97.92;97197.05;135584;1274;22537;-88
2023/03/10 00:05:02;;;;;;;45.90;29.50;;;;;;;2.76;97.60;97197.91;135609;1273;22540;-89
2023/03/10 00:08:05;;;;;;;48.50;30.20;;;;;;;2.77;97.86;97199.48;135581;1273;22521;-87
2023/03/10 00:11:07;;;;;;;45.70;29.30;;;;;;;2.78;97.93;97185.74;135620;1270;22530;-89
2023/03/10 00:14:09;;;;;;;48.90;30.50;;;;;;;2.79;98.35;97175.46;135606;1273;22523;-88
2023/03/10 00:17:12;;;;;;;48.70;30.30;;;;;;;2.79;97.93;97171.84;135610;1267;22541;-88
2023/03/10 00:20:15;;;;;;;51.30;30.50;;;;;;;2.81;98.00;97164.84;135599;1273;22579;-87
2023/03/10 00:23:17;;;;;;;47.30;31.30;;;;;;;2.82;98.22;97171.05;135586;1274;22542;-88
2023/03/10 00:26:20;;;;;;;42.80;26.60;;;;;;;2.84;98.39;97157.84;135568;1274;22634;-85
2023/03/10 00:29:22;;;;;;;51.10;31.20;;;;;;;2.81;98.65;97162.26;135606;1273;24400;-88
2023/03/10 00:32:25;;;;;;;49.10;31.40;;;;;;;2.80;98.97;97170.66;135607;1269;25975;-88
2023/03/10 00:35:27;;;;;;;47.80;31.60;;;;;;;2.84;99.18;97180.52;135601;1275;22553;-87
2023/03/10 00:38:31;;;;;;;47.00;30.00;;;;;;;2.87;98.97;97182.80;135638;1270;22632;-86
2023/03/10 00:41:35;;;;;;;44.30;30.00;;;;;;;2.92;99.60;97170.86;135705;1274;25227;-86
2023/03/10 00:44:37;;;;;;;49.20;31.10;;;;;;;2.95;99.25;97166.92;135675;1274;22521;-87
2023/03/10 00:47:40;;;;;;;46.60;30.10;;;;;;;2.99;99.56;97159.09;135783;1274;25248;-86
2023/03/10 00:50:45;;;;;;;45.80;30.90;;;;;;;2.97;100.00;97154.25;135697;1274;22553;-86
2023/03/10 00:53:48;;;;;;;48.10;31.20;;;;;;;2.96;99.76;97162.30;135552;1273;22538;-86
2023/03/10 00:56:50;;;;;;;49.50;32.20;;;;;;;2.97;99.92;97156.48;135554;1273;23008;-85
2023/03/10 00:59:53;;;;;;;48.50;30.10;;;;;;;3.01;99.86;97145.55;135560;1274;22647;-86
2023/03/10 01:02:57;;;;;;;50.90;31.30;;;;;;;3.05;100.00;97140.44;135571;1274;22628;-86
2023/03/10 01:06:00;;;;;;;50.10;32.80;;;;;;;3.06;99.99;97128.42;135485;1274;22637;-86
2023/03/10 01:09:02;;;;;;;46.90;30.80;;;;;;;3.08;99.87;97122.61;135542;1274;24279;-85
2023/03/10 01:12:05;;;;;;;47.60;31.20;;;;;;;3.10;99.97;97114.21;135541;1274;22562;-85
2023/03/10 01:15:07;;;;;;;46.80;30.90;;;;;;;3.14;99.73;97112.03;135518;1274;23758;-88
2023/03/10 01:18:10;;;;;;;48.90;32.00;;;;;;;3.18;100.00;97113.30;135650;1273;25108;-88
2023/03/10 01:21:12;;;;;;;51.00;32.20;;;;;;;3.22;100.00;97112.83;135551;1273;22548;-84
2023/03/10 01:24:15;;;;;;;50.80;30.90;;;;;;;3.25;100.00;97100.48;135580;1275;22539;-86
2023/03/10 01:27:17;;;;;;;49.20;34.00;;;;;;;3.28;100.00;97095.88;135632;1274;22529;-88
2023/03/10 01:30:20;;;;;;;52.20;35.00;;;;;;;3.31;100.00;97092.31;135585;1273;23436;-90
2023/03/10 01:33:22;;;;;;;53.40;33.90;;;;;;;3.37;100.00;97087.56;135619;1273;22489;-91
2023/03/10 01:36:25;;;;;;;50.70;33.50;;;;;;;3.42;100.00;97080.06;135633;1273;24334;-87
2023/03/10 01:39:28;;;;;;;55.80;34.70;;;;;;;3.49;100.00;97078.97;135601;1274;25391;-87
2023/03/10 01:42:30;;;;;;;55.20;33.90;;;;;;;3.57;100.00;97081.47;135562;1273;22586;-87
2023/03/10 01:45:33;;;;;;;51.40;33.60;;;;;;;3.63;100.00;97073.63;135641;1273;22554;-87
2023/03/10 01:48:35;;;;;;;54.80;33.40;;;;;;;3.69;100.00;97072.65;135620;1273;22527;-86
2023/03/10 01:51:38;;;;;;;51.90;33.50;;;;;;;3.73;100.00;97064.09;135627;1273;23441;-84
2023/03/10 01:54:40;;;;;;;51.60;34.70;;;;;;;3.77;100.00;97060.35;135641;1273;22538;-88
2023/03/10 01:57:42;;;;;;;53.60;33.70;;;;;;;3.82;100.00;97057.98;135654;1273;25401;-88
2023/03/10 02:00:45;;;;;;;49.50;32.60;;;;;;;3.83;100.00;97053.01;135590;1274;22572;-87
2023/03/10 02:03:47;;;;;;;52.60;33.00;;;;;;;4.38;100.00;97044.48;135622;1273;25394;-86
2023/03/10 02:06:50;;;;;;;55.70;35.30;;;;;;;7.27;100.00;97033.98;135650;1274;22531;-87
2023/03/10 02:09:52;;;;;;;46.80;31.50;;;;;;;9.67;100.00;97025.81;135657;1273;22538;-86
2023/03/10 02:12:55;;;;;;;46.40;29.30;;;;;;;11.32;100.00;97020.52;135647;1274;25289;-85
2023/03/10 02:15:58;;;;;;;45.70;29.60;;;;;;;12.50;97.35;97014.26;135611;1273;24262;-85
2023/03/10 02:19:00;;;;;;;38.10;26.00;;;;;;;12.81;84.24;97012.08;135680;1273;25385;-86
2023/03/10 02:22:02;;;;;;;36.40;25.50;;;;;;;10.84;76.14;97024.52;135647;1273;22534;-86
2023/03/10 02:25:05;;;;;;;37.30;27.20;;;;;;;8.99;75.82;97025.23;135609;1273;22596;-86
2023/03/10 02:28:07;;;;;;;41.80;27.90;;;;;;;7.57;78.02;97028.74;135611;1274;22545;-86
2023/03/10 02:31:10;;;;;;;41.90;27.40;;;;;;;6.59;80.40;97029.75;135602;1273;22564;-88
2023/03/10 02:34:12;;;;;;;46.10;30.20;;;;;;;5.95;82.63;97030.25;135590;1274;25907;-86
2023/03/10 02:37:15;;;;;;;41.40;28.90;;;;;;;5.48;84.92;97028.07;135571;1273;22534;-86
2023/03/10 02:40:17;;;;;;;47.50;30.00;;;;;;;5.15;86.50;97019.66;135600;1274;22603;-86
2023/03/10 02:43:20;;;;;;;44.80;28.90;;;;;;;4.93;87.84;97016.79;135720;1273;22540;-86
2023/03/10 02:46:22;;;;;;;48.50;32.00;;;;;;;4.72;89.18;97019.63;135586;1274;22566;-83
2023/03/10 02:49:25;;;;;;;49.40;30.20;;;;;;;4.57;90.10;97023.15;135571;1269;24264;-85
2023/03/10 02:52:27;;;;;;;62.30;36.60;;;;;;;4.49;90.57;97027.75;135583;1274;25233;-85
2023/03/10 02:55:30;;;;;;;52.00;32.30;;;;;;;4.42;91.01;97027.19;135541;1274;22538;-85
2023/03/10 02:58:32;;;;;;;45.20;28.90;;;;;;;4.35;91.36;97023.67;135805;1274;22581;-85
2023/03/10 03:01:35;;;;;;;44.40;29.80;;;;;;;4.26;91.38;97022.73;135715;1274;24282;-88
2023/03/10 03:04:37;;;;;;;43.90;29.50;;;;;;;4.18;92.03;97019.92;135565;1274;22557;-84
2023/03/10 03:07:39;;;;;;;41.80;27.90;;;;;;;4.10;92.30;97014.53;135570;1274;22530;-86
2023/03/10 03:10:44;;;;;;;43.00;28.10;;;;;;;4.02;92.52;97011.53;135609;1273;22550;-86
2023/03/10 03:13:47;;;;;;;42.50;27.40;;;;;;;3.93;92.36;97005.44;135618;1273;22534;-84
2023/03/10 03:16:49;;;;;;;43.90;29.60;;;;;;;3.86;93.17;97003.65;135541;1273;24360;-85
2023/03/10 03:19:52;;;;;;;45.60;29.30;;;;;;;3.85;93.76;97000.20;135532;1273;25284;-84
2023/03/10 03:22:54;;;;;;;44.70;28.70;;;;;;;3.82;93.69;96995.02;135537;1263;22621;-82
2023/03/10 03:25:57;;;;;;;48.20;29.60;;;;;;;3.80;94.46;96994.14;135614;1269;22640;-85
2023/03/10 03:29:01;;;;;;;38.40;27.20;;;;;;;3.79;94.25;96989.66;135608;1274;22563;-85
2023/03/10 03:32:04;;;;;;;39.20;25.20;;;;;;;3.71;93.30;96989.92;135602;1273;22540;-83
2023/03/10 03:35:08;;;;;;;39.70;25.30;;;;;;;3.60;92.91;96989.30;135593;1273;22534;-85
2023/03/10 03:38:11;;;;;;;39.40;27.80;;;;;;;3.50;92.85;96990.92;135607;1273;22559;-83
2023/03/10 03:41:13;;;;;;;41.80;26.60;;;;;;;3.41;93.23;96990.64;135658;1274;22537;-85
2023/03/10 03:44:18;;;;;;;42.50;26.10;;;;;;;3.34;92.97;96988.85;135643;1274;22621;-86
2023/03/10 03:47:21;;;;;;;;;;;;;;;3.25;92.77;96986.00;135653;1274;22515;-84
2023/03/10 03:50:23;;;;;;;35.50;24.10;;;;;;;3.12;92.96;96990.33;135656;1274;22547;-87
2023/03/10 03:53:25;;;;;;;36.80;24.50;;;;;;;3.04;93.20;96983.20;135762;1274;22549;-87
2023/03/10 03:56:28;;;;;;;37.50;25.90;;;;;;;3.00;93.52;96977.30;135644;1273;22541;-84
2023/03/10 03:59:31;;;;;;;42.90;26.40;;;;;;;2.95;93.22;96974.49;135775;1274;22531;-85
2023/03/10 04:02:33;;;;;;;36.40;25.80;;;;;;;2.87;92.99;96974.06;135671;1274;22550;-85
2023/03/10 04:05:35;;;;;;;41.30;27.60;;;;;;;2.81;92.66;96976.56;135631;1273;22518;-86
2023/03/10 04:08:38;;;;;;;40.50;25.00;;;;;;;2.76;93.51;96975.81;135687;1267;22527;-86
2023/03/10 04:11:41;;;;;;;38.80;25.50;;;;;;;2.65;93.23;96973.10;135951;1274;22578;-84
2023/03/10 04:14:44;;;;;;;39.00;25.30;;;;;;;2.56;93.43;96965.58;136045;1274;22562;-83
2023/03/10 04:17:46;;;;;;;37.80;25.30;;;;;;;2.49;93.63;96963.08;135890;1270;23030;-83
2023/03/10 04:20:48;;;;;;;39.70;26.20;;;;;;;2.43;93.87;96960.42;135949;1274;22619;-84
2023/03/10 04:23:51;;;;;;;38.10;25.60;;;;;;;2.36;93.44;96955.69;135937;1273;22995;-84
2023/03/10 04:26:53;;;;;;;47.60;27.00;;;;;;;2.28;93.51;96958.66;135970;1273;27015;-82
2023/03/10 04:29:56;;;;;;;38.40;26.00;;;;;;;2.24;93.65;96950.37;136086;1273;22576;-84
2023/03/10 04:32:59;;;;;;;38.00;25.00;;;;;;;2.16;93.72;96944.08;136008;1273;22632;-83
2023/03/10 04:36:01;;;;;;;37.40;24.20;;;;;;;2.09;94.29;96943.45;136057;1273;22696;-85
2023/03/10 04:39:04;;;;;;;35.40;24.30;;;;;;;2.16;95.00;96940.48;135964;1273;22527;-83
2023/03/10 04:42:07;;;;;;;37.00;24.40;;;;;;;2.10;93.76;96939.19;135864;1267;22534;-83
2023/03/10 04:45:09;;;;;;;42.70;25.70;;;;;;;2.02;94.10;96936.84;135756;1273;24192;-84
2023/03/10 04:48:12;;;;;;;41.80;25.30;;;;;;;1.95;94.35;96928.33;135871;1273;22557;-84
2023/03/10 04:51:14;;;;;;;39.90;24.40;;;;;;;1.92;94.14;96925.71;136181;1273;22539;-83
2023/03/10 04:54:17;;;;;;;37.20;24.20;;;;;;;1.86;94.26;96921.51;135953;1270;23811;-85
2023/03/10 04:57:19;;;;;;;41.70;25.40;;;;;;;1.80;94.37;96917.13;135738;1273;22568;-81
2023/03/10 05:00:21;;;;;;;39.60;24.40;;;;;;;1.75;94.58;96906.42;136075;1273;22545;-82
2023/03/10 05:03:24;;;;;;;40.10;24.80;;;;;;;1.72;94.69;96906.86;136399;1273;22567;-81
2023/03/10 05:06:26;;;;;;;40.50;25.00;;;;;;;1.71;94.70;96905.81;135243;1273;22603;-80
2023/03/10 05:09:29;;;;;;;235.90;137.10;;;;;;;1.68;94.83;96901.48;135202;1273;25329;-85
2023/03/10 05:12:31;;;;;;;60.30;37.60;;;;;;;1.70;94.90;96897.56;136341;1270;22551;-82
2023/03/10 05:15:34;;;;;;;44.90;28.50;;;;;;;1.71;95.01;96898.09;136531;1273;23067;-83
2023/03/10 05:18:36;;;;;;;44.60;25.70;;;;;;;1.72;94.94;96892.81;136391;1273;22570;-82
2023/03/10 05:21:39;;;;;;;38.30;24.10;;;;;;;1.77;95.20;96889.82;134956;1273;22678;-83
2023/03/10 05:24:41;;;;;;;43.80;24.40;;;;;;;1.82;94.76;96888.35;136697;1263;22528;-82
2023/03/10 05:27:44;;;;;;;45.20;25.10;;;;;;;1.82;94.40;96884.23;136422;1273;22569;-82
2023/03/10 05:30:46;;;;;;;37.30;23.40;;;;;;;1.86;94.59;96887.90;136336;1273;22566;-82
2023/03/10 05:33:49;;;;;;;32.70;21.80;;;;;;;1.90;94.64;96884.35;136193;1270;22646;-81
2023/03/10 05:36:51;;;;;;;33.80;21.90;;;;;;;1.98;95.05;96879.82;136625;1273;22621;-83
2023/03/10 05:39:54;;;;;;;36.70;22.40;;;;;;;2.04;95.46;96875.11;136437;1273;22585;-82
2023/03/10 05:42:56;;;;;;;36.00;20.80;;;;;;;2.15;95.94;96873.38;136680;1260;22550;-82
2023/03/10 05:45:59;;;;;;;38.30;21.00;;;;;;;2.32;97.32;96872.39;136426;1273;23379;-82
2023/03/10 05:49:01;;;;;;;41.10;21.20;;;;;;;2.58;98.81;96868.58;136614;1273;23289;-82
2023/03/10 05:52:04;;;;;;;41.20;21.30;;;;;;;2.89;99.97;96864.30;136336;1263;22574;-83
2023/03/10 05:55:06;;;;;;;38.40;21.40;;;;;;;3.23;100.00;96856.37;136328;1273;23012;-82
2023/03/10 05:58:08;;;;;;;48.20;20.60;;;;;;;3.52;100.00;96861.96;136513;1273;22537;-83
2023/03/10 06:01:11;;;;;;;43.30;21.50;;;;;;;3.77;100.00;96857.68;136350;1273;22610;-84
2023/03/10 06:04:13;;;;;;;31.90;18.20;;;;;;;4.06;100.00;96854.23;136012;1273;24225;-83
2023/03/10 06:07:16;;;;;;;34.20;18.50;;;;;;;4.33;100.00;96857.14;136337;1270;22588;-82
2023/03/10 06:10:18;;;;;;;40.40;20.30;;;;;;;4.57;100.00;96856.05;136317;1266;22570;-79
2023/03/10 06:13:21;;;;;;;30.80;17.10;;;;;;;4.79;100.00;96850.27;136523;1273;22527;-78
2023/03/10 06:16:23;;;;;;;30.00;15.90;;;;;;;5.07;100.00;96849.29;135010;1273;22542;-78
2023/03/10 06:19:26;;;;;;;25.60;13.60;;;;;;;5.31;100.00;96841.05;135080;1273;22695;-77
2023/03/10 06:22:28;;;;;;;19.00;11.70;;;;;;;5.56;100.00;96838.13;134992;1252;23044;-78
2023/03/10 06:25:31;;;;;;;20.10;11.30;;;;;;;5.77;100.00;96832.23;135157;1273;25275;-77
2023/03/10 06:28:34;;;;;;;24.90;11.80;;;;;;;5.94;99.97;96826.54;134973;1273;23015;-78
2023/03/10 06:31:37;;;;;;;24.60;13.20;;;;;;;6.10;99.94;96825.66;134971;1273;22551;-77
2023/03/10 06:34:39;;;;;;;30.20;13.50;;;;;;;6.25;99.24;96816.98;135136;1273;22553;-78
2023/03/10 06:37:41;;;;;;;33.50;13.30;;;;;;;6.39;98.41;96818.84;135100;1273;22554;-82
2023/03/10 06:40:44;;;;;;;28.30;13.80;;;;;;;6.51;97.99;96815.67;136329;1273;22532;-81
2023/03/10 06:43:46;;;;;;;25.60;13.60;;;;;;;6.62;97.71;96813.20;136041;1273;22533;-81
2023/03/10 06:46:49;;;;;;;28.10;13.40;;;;;;;6.74;97.21;96814.70;136239;1273;22574;-80
2023/03/10 06:49:53;;;;;;;33.30;13.60;;;;;;;6.81;97.00;96806.01;136082;1273;22529;-81
2023/03/10 06:52:56;;;;;;;32.90;14.10;;;;;;;6.90;96.52;96801.80;136284;1273;22554;-81
2023/03/10 06:55:58;;;;;;;27.40;13.10;;;;;;;6.97;96.16;96801.61;136628;1273;22561;-78
2023/03/10 06:59:00;;;;;;;19.00;10.50;;;;;;;7.08;95.87;96801.89;134995;1273;22557;-79
2023/03/10 07:02:03;;;;;;;22.70;11.00;;;;;;;7.23;95.57;96800.39;134877;1273;22546;-79
2023/03/10 07:05:05;;;;;;;18.10;11.30;;;;;;;7.46;94.99;96794.16;134843;1273;26052;-78
2023/03/10 07:08:08;;;;;;;16.10;9.90;;;;;;;7.75;94.71;96782.98;134826;1273;23252;-78
2023/03/10 07:11:10;;;;;;;20.30;9.20;;;;;;;8.08;94.12;96784.90;135012;1273;22537;-80
2023/03/10 07:14:13;;;;;;;19.20;9.70;;;;;;;8.39;92.73;96785.95;136344;1273;22562;-80
2023/03/10 07:17:15;;;;;;;18.90;9.90;;;;;;;8.56;91.23;96785.04;135044;1273;22527;-81
2023/03/10 07:20:20;;;;;;;14.30;9.30;;;;;;;8.60;90.85;96778.23;136446;1273;22936;-81
2023/03/10 07:23:23;;;;;;;18.70;8.80;;;;;;;8.57;90.72;96780.70;136402;1273;22595;-80
2023/03/10 07:26:25;;;;;;;12.40;6.90;;;;;;;8.58;90.62;96776.35;136340;1273;22572;-82
2023/03/10 07:29:27;;;;;;;19.70;8.70;;;;;;;8.63;89.91;96774.38;136339;1273;22607;-80
2023/03/10 07:32:30;;;;;;;15.20;7.60;;;;;;;8.74;89.99;96769.40;136392;1273;22550;-78
2023/03/10 07:35:32;;;;;;;12.80;7.70;;;;;;;8.88;89.85;96770.41;135042;1273;22535;-81
2023/03/10 07:38:35;;;;;;;16.30;7.20;;;;;;;9.02;89.59;96770.73;136333;1273;22541;-80
2023/03/10 07:41:37;;;;;;;14.50;7.40;;;;;;;9.10;89.40;96776.34;135022;1273;22528;-82
2023/03/10 07:44:40;;;;;;;16.90;8.10;;;;;;;9.23;88.94;96776.64;136408;1273;27086;-81
2023/03/10 07:47:42;;;;;;;16.50;8.30;;;;;;;9.38;88.63;96773.79;136521;1273;22584;-80
2023/03/10 07:50:44;;;;;;;14.40;7.10;;;;;;;9.54;88.01;96773.90;136282;1273;22545;-80
2023/03/10 07:53:47;;;;;;;20.90;11.60;;;;;;;9.72;87.49;96774.83;135306;1273;22586;-79
2023/03/10 07:56:49;;;;;;;20.10;10.70;;;;;;;9.86;86.44;96773.50;135448;1273;22532;-79
2023/03/10 07:59:52;;;;;;;25.40;11.90;;;;;;;9.98;86.43;96772.08;135415;1273;23046;-81
2023/03/10 08:02:54;;;;;;;21.20;12.50;;;;;;;10.06;86.07;96773.14;134974;1273;22526;-83
2023/03/10 08:05:58;;;;;;;24.30;11.40;;;;;;;10.06;85.75;96770.54;136232;1273;22560;-81
2023/03/10 08:09:01;;;;;;;18.50;9.20;;;;;;;10.06;85.30;96766.36;136353;1273;22531;-82
2023/03/10 08:12:04;;;;;;;15.40;7.90;;;;;;;-100.38;16.19;19352.15;133438;1273;1002913;-82
2023/03/10 08:15:07;;;;;;;15.30;7.60;;;;;;;-128.00;-1.00;-1.00;132453;1274;1004920;-84
2023/03/10 08:18:10;;;;;;;15.50;7.20;;;;;;;-128.00;-1.00;-1.00;132524;1273;1003585;-80
2023/03/10 08:21:12;;;;;;;10.60;6.20;;;;;;;-128.00;-1.00;-1.00;132576;1273;1004383;-83
2023/03/10 08:24:15;;;;;;;10.90;5.60;;;;;;;-128.00;-1.00;-1.00;132522;1273;1004289;-82
2023/03/10 08:27:17;;;;;;;10.70;5.50;;;;;;;-128.00;-1.00;-1.00;132587;1273;1004152;-80
2023/03/10 08:30:20;;;;;;;9.70;5.60;;;;;;;-128.00;-1.00;-1.00;132271;1274;1005063;-80
2023/03/10 08:33:22;;;;;;;9.80;4.80;;;;;;;-128.00;-1.00;-1.00;131385;1273;1004803;-81
2023/03/10 08:36:25;;;;;;;7.80;4.30;;;;;;;-128.00;-1.00;-1.00;131580;1273;1004785;-80
2023/03/10 08:39:27;;;;;;;6.50;4.20;;;;;;;-128.00;-1.00;-1.00;131481;1273;1004434;-80
2023/03/10 08:42:29;;;;;;;6.90;4.10;;;;;;;-128.00;-1.00;-1.00;131317;1274;1004638;-81
2023/03/10 08:45:32;;;;;;;6.40;4.10;;;;;;;-128.00;-1.00;-1.00;131298;1273;1005373;-81
2023/03/10 08:48:34;;;;;;;7.90;5.20;;;;;;;-128.00;-1.00;-1.00;131333;1273;1004801;-79
2023/03/10 08:51:37;;;;;;;13.00;6.00;;;;;;;-128.00;-1.00;-1.00;131247;1274;1004302;-79
2023/03/10 08:54:39;;;;;;;8.90;5.50;;;;;;;-128.00;-1.00;-1.00;131298;1273;1005143;-78
2023/03/10 08:57:42;;;;;;;11.60;5.50;;;;;;;-128.00;-1.00;-1.00;131128;1273;1004033;-77
2023/03/10 09:00:44;;;;;;;9.10;4.30;;;;;;;-128.00;-1.00;-1.00;131400;1251;1004353;-80
2023/03/10 09:03:46;;;;;;;9.70;4.70;;;;;;;-128.00;-1.00;-1.00;131363;1273;1004112;-79
2023/03/10 09:06:49;;;;;;;8.00;4.70;;;;;;;-128.00;-1.00;-1.00;131174;1273;1004095;-80
2023/03/10 09:09:51;;;;;;;7.40;4.40;;;;;;;-128.00;-1.00;-1.00;131166;1273;1004628;-80
2023/03/10 09:12:54;;;;;;;10.80;4.90;;;;;;;-128.00;-1.00;-1.00;131201;1273;1005037;-82
2023/03/10 09:15:56;;;;;;;8.50;4.80;;;;;;;-128.00;-1.00;-1.00;131220;1273;1004343;-80
2023/03/10 09:18:59;;;;;;;8.80;5.10;;;;;;;-128.00;-1.00;-1.00;131295;1273;1004397;-78
2023/03/10 09:22:01;;;;;;;10.60;5.30;;;;;;;-128.00;-1.00;-1.00;131491;1273;1004911;-80
2023/03/10 09:25:04;;;;;;;10.30;5.50;;;;;;;-128.00;-1.00;-1.00;131446;1273;1004554;-81
2023/03/10 09:28:07;;;;;;;10.90;5.90;;;;;;;-128.00;-1.00;-1.00;132867;1273;1004465;-83
2023/03/10 09:31:09;;;;;;;7.60;4.50;;;;;;;-128.00;-1.00;-1.00;131343;1273;1004839;-80
2023/03/10 09:34:12;;;;;;;7.80;4.50;;;;;;;-128.00;-1.00;-1.00;131347;1273;1004550;-82
2023/03/10 09:37:15;;;;;;;7.40;4.30;;;;;;;-128.00;-1.00;-1.00;133010;1273;1004407;-81
2023/03/10 09:40:17;;;;;;;9.10;4.60;;;;;;;-128.00;-1.00;-1.00;132959;1273;1004085;-79
2023/03/10 09:43:19;;;;;;;11.90;4.90;;;;;;;-128.00;-1.00;-1.00;131298;1251;1003921;-79
2023/03/10 09:46:22;;;;;;;7.60;4.60;;;;;;;-128.00;-1.00;-1.00;132726;1273;1003908;-79
2023/03/10 09:49:24;;;;;;;4.20;3.00;;;;;;;-128.00;-1.00;-1.00;131590;1273;1004630;-80
2023/03/10 09:52:27;;;;;;;4.90;3.20;;;;;;;-128.00;-1.00;-1.00;131556;1273;1004655;-79
2023/03/10 09:55:29;;;;;;;7.10;3.60;;;;;;;-128.00;-1.00;-1.00;131652;1273;1004583;-79
2023/03/10 09:58:32;;;;;;;5.30;3.00;;;;;;;-128.00;-1.00;-1.00;131560;1273;1004906;-80
2023/03/10 10:01:34;;;;;;;6.10;2.80;;;;;;;-128.00;-1.00;-1.00;131649;1273;1004091;-79
2023/03/10 10:04:38;;;;;;;7.30;2.80;;;;;;;-128.00;-1.00;-1.00;131325;1273;1003638;-81
2023/03/10 10:07:40;;;;;;;5.10;2.90;;;;;;;-128.00;-1.00;-1.00;131422;1273;1004690;-81
2023/03/10 10:10:43;;;;;;;5.90;2.90;;;;;;;-128.00;-1.00;-1.00;131416;1273;1003970;-82
2023/03/10 10:13:45;;;;;;;6.80;3.80;;;;;;;-128.00;-1.00;-1.00;132690;1273;1004847;-81
2023/03/10 10:16:48;;;;;;;8.40;3.60;;;;;;;-128.00;-1.00;-1.00;131367;1273;1004549;-81
2023/03/10 10:19:50;;;;;;;5.10;2.70;;;;;;;-128.00;-1.00;-1.00;132762;1273;1004091;-80
2023/03/10 10:22:55;;;;;;;3.90;2.60;;;;;;;-128.00;-1.00;-1.00;132740;1273;1004443;-82
2023/03/10 10:25:58;;;;;;;5.40;3.00;;;;;;;-128.00;-1.00;-1.00;132897;1273;1003928;-81
2023/03/10 10:29:00;;;;;;;5.30;2.90;;;;;;;-128.00;-1.00;-1.00;131230;1273;1003856;-80
2023/03/10 10:32:03;;;;;;;8.60;3.90;;;;;;;-128.00;-1.00;-1.00;131312;1273;1004553;-78
2023/03/10 10:35:06;;;;;;;6.90;3.10;;;;;;;-128.00;-1.00;-1.00;131292;1251;1004384;-79
2023/03/10 10:38:09;;;;;;;6.80;3.30;;;;;;;-128.00;-1.00;-1.00;131273;1273;1005186;-80
2023/03/10 10:41:11;;;;;;;4.40;3.00;;;;;;;-128.00;-1.00;-1.00;131357;1273;1004383;-81
2023/03/10 10:44:14;;;;;;;8.20;3.00;;;;;;;-128.00;-1.00;-1.00;131359;1273;1004092;-81
2023/03/10 10:47:16;;;;;;;5.60;2.60;;;;;;;-128.00;-1.00;-1.00;131271;1273;1004578;-79
2023/03/10 10:50:19;;;;;;;5.40;2.90;;;;;;;-128.00;-1.00;-1.00;131468;1273;1004052;-79
2023/03/10 10:53:23;;;;;;;7.40;3.10;;;;;;;-128.00;-1.00;-1.00;131501;1273;1004492;-81
2023/03/10 10:56:27;;;;;;;5.60;2.60;;;;;;;-128.00;-1.00;-1.00;131424;1273;1004194;-80
2023/03/10 10:59:29;;;;;;;7.20;2.70;;;;;;;-128.00;-1.00;-1.00;131387;1273;1005102;-78
2023/03/10 11:02:32;;;;;;;3.20;2.50;;;;;;;-128.00;-1.00;-1.00;131462;1273;1003859;-80
2023/03/10 11:05:36;;;;;;;3.40;2.60;;;;;;;-128.00;-1.00;-1.00;131520;1273;1004273;-78
2023/03/10 11:08:41;;;;;;;4.70;2.60;;;;;;;-128.00;-1.00;-1.00;131282;1273;1004454;-78
2023/03/10 11:11:44;;;;;;;5.10;2.80;;;;;;;-128.00;-1.00;-1.00;131241;1273;1004557;-77
2023/03/10 11:14:48;;;;;;;3.60;2.60;;;;;;;-128.00;-1.00;-1.00;131274;1273;1003740;-79
2023/03/10 11:17:50;;;;;;;4.50;3.00;;;;;;;-128.00;-1.00;-1.00;131269;1273;1005312;-79
2023/03/10 11:20:53;;;;;;;8.50;3.10;;;;;;;-128.00;-1.00;-1.00;131325;1273;1005011;-80
2023/03/10 11:23:55;;;;;;;7.20;3.30;;;;;;;-128.00;-1.00;-1.00;131454;1273;1005277;-81
2023/03/10 11:26:58;;;;;;;7.90;3.60;;;;;;;-128.00;-1.00;-1.00;131290;1273;1004983;-82
2023/03/10 11:30:01;;;;;;;6.70;3.40;;;;;;;-128.00;-1.00;-1.00;131347;1273;1004687;-79
2023/03/10 11:33:03;;;;;;;7.10;3.90;;;;;;;-128.00;-1.00;-1.00;131391;1273;1003954;-79
2023/03/10 11:36:05;;;;;;;7.20;3.80;;;;;;;-128.00;-1.00;-1.00;131343;1273;1004228;-81
2023/03/10 11:39:09;;;;;;;7.30;3.60;;;;;;;-128.00;-1.00;-1.00;131337;1273;1005270;-80
2023/03/10 11:42:11;;;;;;;9.20;4.40;;;;;;;-128.00;-1.00;-1.00;131342;1273;1004759;-81
2023/03/10 11:45:13;;;;;;;7.40;3.70;;;;;;;-128.00;-1.00;-1.00;131424;1273;1005034;-80
2023/03/10 11:48:16;;;;;;;7.10;3.60;;;;;;;-128.00;-1.00;-1.00;131350;1273;1004085;-79
2023/03/10 11:51:18;;;;;;;5.50;3.40;;;;;;;-128.00;-1.00;-1.00;131269;1273;1004974;-79
2023/03/10 11:54:21;;;;;;;4.10;2.70;;;;;;;-128.00;-1.00;-1.00;131284;1273;1003877;-81
2023/03/10 11:57:23;;;;;;;4.60;3.50;;;;;;;-128.00;-1.00;-1.00;131282;1273;1005152;-79
2023/03/10 12:00:26;;;;;;;8.10;3.40;;;;;;;-128.00;-1.00;-1.00;131340;1273;1004224;-79
2023/03/10 12:03:30;;;;;;;8.80;3.40;;;;;;;-128.00;-1.00;-1.00;131454;1273;1004680;-80
2023/03/10 12:06:32;;;;;;;4.50;3.20;;;;;;;-128.00;-1.00;-1.00;132414;1273;1003787;-82
2023/03/10 12:09:35;;;;;;;11.40;4.00;;;;;;;-128.00;-1.00;-1.00;132712;1273;1003596;-81
2023/03/10 12:12:37;;;;;;;7.30;4.20;;;;;;;-128.00;-1.00;-1.00;132650;1273;1004682;-82
2023/03/10 12:15:40;;;;;;;13.80;5.20;;;;;;;-128.00;-1.00;-1.00;132523;1273;1003815;-82
2023/03/10 12:18:43;;;;;;;10.00;4.70;;;;;;;-128.00;-1.00;-1.00;132675;1273;1004975;-81
2023/03/10 12:21:48;;;;;;;10.80;5.00;;;;;;;-128.00;-1.00;-1.00;131356;1273;1005170;-80
2023/03/10 12:24:51;;;;;;;12.40;5.60;;;;;;;-128.00;-1.00;-1.00;131484;1273;1004197;-81
2023/03/10 12:27:54;;;;;;;9.50;4.40;;;;;;;-128.00;-1.00;-1.00;131480;1273;1004625;-79
2023/03/10 12:30:56;;;;;;;8.60;4.90;;;;;;;-128.00;-1.00;-1.00;131197;1273;1004229;-79
2023/03/10 12:33:59;;;;;;;8.00;4.60;;;;;;;-128.00;-1.00;-1.00;131265;1273;1005096;-80
2023/03/10 12:37:01;;;;;;;7.20;4.60;;;;;;;-128.00;-1.00;-1.00;131145;1273;1004233;-79
2023/03/10 12:40:06;;;;;;;7.40;4.40;;;;;;;-128.00;-1.00;-1.00;131174;1273;1004497;-80
2023/03/10 12:43:08;;;;;;;9.70;4.80;;;;;;;-128.00;-1.00;-1.00;131117;1273;1004944;-79
2023/03/10 12:46:11;;;;;;;11.70;4.60;;;;;;;-128.00;-1.00;-1.00;131154;1273;1005159;-78
2023/03/10 12:49:13;;;;;;;10.50;5.00;;;;;;;-128.00;-1.00;-1.00;131140;1273;1003584;-80
2023/03/10 12:52:15;;;;;;;7.40;4.20;;;;;;;-128.00;-1.00;-1.00;131282;1273;1005044;-81
2023/03/10 12:55:18;;;;;;;8.00;4.40;;;;;;;-128.00;-1.00;-1.00;131361;1273;1004114;-79
2023/03/10 12:58:20;;;;;;;18.10;3.90;;;;;;;-128.00;-1.00;-1.00;131442;1273;1004342;-83
2023/03/10 13:01:23;;;;;;;5.70;3.60;;;;;;;-128.00;-1.00;-1.00;131465;1273;1003640;-79
2023/03/10 13:04:25;;;;;;;5.40;3.30;;;;;;;-128.00;-1.00;-1.00;131430;1273;1004773;-79
2023/03/10 13:07:27;;;;;;;5.10;3.60;;;;;;;-128.00;-1.00;-1.00;131293;1273;1003657;-78
2023/03/10 13:10:30;;;;;;;11.70;3.90;;;;;;;-128.00;-1.00;-1.00;131153;1273;1005094;-77
2023/03/10 13:13:32;;;;;;;7.90;3.60;;;;;;;-128.00;-1.00;-1.00;131121;1273;1004204;-79
2023/03/10 13:16:35;;;;;;;5.40;3.40;;;;;;;-128.00;-1.00;-1.00;131177;1273;1003741;-80
2023/03/10 13:19:37;;;;;;;7.90;3.80;;;;;;;-128.00;-1.00;-1.00;131141;1273;1005560;-79
2023/03/10 13:22:42;;;;;;;7.90;3.40;;;;;;;-128.00;-1.00;-1.00;131130;1273;1004871;-79
2023/03/10 13:25:44;;;;;;;21.70;4.60;;;;;;;-128.00;-1.00;-1.00;131171;1273;1003956;-79
2023/03/10 13:28:47;;;;;;;13.40;4.00;;;;;;;-128.00;-1.00;-1.00;131081;1273;1004644;-79
2023/03/10 13:31:50;;;;;;;17.20;3.80;;;;;;;-128.00;-1.00;-1.00;131154;1273;1004591;-79
2023/03/10 13:34:52;;;;;;;5.40;3.40;;;;;;;-128.00;-1.00;-1.00;131161;1273;1005010;-81
2023/03/10 13:37:54;;;;;;;14.00;8.10;;;;;;;-128.00;-1.00;-1.00;131110;1258;1004343;-80
2023/03/10 13:40:57;;;;;;;6.30;3.40;;;;;;;-128.00;-1.00;-1.00;131159;1273;1003825;-82
2023/03/10 13:43:59;;;;;;;7.30;3.30;;;;;;;-128.00;-1.00;-1.00;131268;1273;1004468;-80
2023/03/10 13:47:02;;;;;;;101.00;9.20;;;;;;;-128.00;-1.00;-1.00;131297;1273;1004603;-81
2023/03/10 13:50:04;;;;;;;11.50;3.90;;;;;;;-128.00;-1.00;-1.00;133105;1273;1004481;-79
2023/03/10 13:53:07;;;;;;;10.10;4.20;;;;;;;-128.00;-1.00;-1.00;131213;1273;1004221;-80
2023/03/10 13:56:09;;;;;;;8.60;4.00;;;;;;;-128.00;-1.00;-1.00;131192;1273;1004896;-80
2023/03/10 13:59:11;;;;;;;36.40;4.60;;;;;;;-128.00;-1.00;-1.00;131331;1273;1004524;-80